Time;durP1;ratioP1;P1;durP2;ratioP2;P2;SDS_P1;SDS_P2;PMS_P1;PMS_P2;Temp;Humidity;BMP_temperature;BMP_pressure;BME280_temperature;BME280_humidity;BME280_pressure;Samples;Min_cycle;Max_cycle;Signal;HPM_P1;HPM_P2
2022/03/24 00:00:09;;;;;;;28.58;19.02;;;12.20;48.50;;;;;;5055726;28;20025;-75
2022/03/24 00:02:34;;;;;;;29.85;19.73;;;12.10;48.90;;;;;;5055765;28;20624;-76
2022/03/24 00:05:01;;;;;;;28.33;19.33;;;12.00;47.60;;;;;;5055730;28;20029;-76
2022/03/24 00:07:26;;;;;;;25.80;18.70;;;11.90;47.30;;;;;;5055582;28;20095;-75
2022/03/24 00:09:53;;;;;;;27.52;18.80;;;11.80;46.80;;;;;;5055442;28;20073;-76
2022/03/24 00:12:18;;;;;;;29.48;18.98;;;11.70;46.50;;;;;;5055428;28;20425;-75
2022/03/24 00:14:44;;;;;;;30.98;17.90;;;11.70;46.20;;;;;;5055577;28;20025;-76
2022/03/24 00:17:10;;;;;;;25.67;17.90;;;11.60;45.80;;;;;;5055563;28;20047;-77
2022/03/24 00:19:36;;;;;;;25.02;16.70;;;11.70;45.80;;;;;;5055425;28;20029;-74
2022/03/24 00:22:02;;;;;;;22.52;16.08;;;11.60;45.40;;;;;;5055343;28;20037;-74
2022/03/24 00:24:27;;;;;;;20.80;16.77;;;11.70;45.60;;;;;;5055243;28;20033;-74
2022/03/24 00:26:53;;;;;;;26.63;17.25;;;11.70;45.50;;;;;;5055247;28;20017;-74
2022/03/24 00:29:19;;;;;;;25.88;16.60;;;11.70;45.20;;;;;;5054953;28;20061;-73
2022/03/24 00:31:46;;;;;;;24.52;16.83;;;11.70;45.10;;;;;;5055020;28;20029;-77
2022/03/24 00:34:13;;;;;;;24.48;16.85;;;11.70;45.20;;;;;;5054961;28;20061;-74
2022/03/24 00:36:39;;;;;;;28.02;17.35;;;11.80;45.40;;;;;;5054868;28;20020;-74
2022/03/24 00:39:05;;;;;;;23.45;16.92;;;11.80;45.00;;;;;;5054614;28;20079;-74
2022/03/24 00:41:30;;;;;;;26.27;16.90;;;11.60;45.00;;;;;;5054796;28;20029;-74
2022/03/24 00:43:56;;;;;;;24.15;16.27;;;11.50;45.10;;;;;;5054614;28;20374;-74
2022/03/24 00:46:23;;;;;;;25.40;17.33;;;11.40;45.00;;;;;;5054650;28;20046;-75
2022/03/24 00:48:53;;;;;;;22.90;16.92;;;11.40;45.10;;;;;;5069327;28;20025;-76
2022/03/24 00:51:19;;;;;;;25.50;17.67;;;11.40;45.10;;;;;;5054628;28;20036;-77
2022/03/24 00:53:46;;;;;;;24.50;16.20;;;11.30;45.30;;;;;;5053011;28;20438;-75
2022/03/24 00:56:12;;;;;;;25.02;17.35;;;11.20;45.20;;;;;;5054470;28;20163;-73
2022/03/24 00:58:38;;;;;;;25.67;17.20;;;11.30;45.50;;;;;;5054431;28;20488;-73
2022/03/24 01:01:09;;;;;;;27.40;17.42;;;11.30;45.40;;;;;;5054456;28;20382;-75
2022/03/24 01:03:36;;;;;;;28.60;17.30;;;11.20;45.20;;;;;;5053096;28;20029;-73
2022/03/24 01:06:03;;;;;;;24.00;16.65;;;11.10;45.20;;;;;;5054375;28;20025;-76
2022/03/24 01:08:31;;;;;;;22.25;16.52;;;11.10;45.90;;;;;;5054299;28;20120;-77
2022/03/24 01:10:57;;;;;;;29.38;18.50;;;11.20;45.60;;;;;;5054115;28;20115;-77
2022/03/24 01:13:23;;;;;;;28.77;17.35;;;11.20;45.60;;;;;;5054107;28;20013;-74
2022/03/24 01:15:49;;;;;;;27.50;17.40;;;11.10;45.90;;;;;;5054105;28;20025;-76
2022/03/24 01:18:16;;;;;;;31.35;17.67;;;11.20;45.90;;;;;;5053984;28;20048;-74
2022/03/24 01:20:42;;;;;;;32.63;17.83;;;11.20;46.00;;;;;;5052509;28;20029;-73
2022/03/24 01:23:08;;;;;;;26.17;16.38;;;11.20;46.30;;;;;;5053889;28;20017;-73
2022/03/24 01:25:34;;;;;;;27.92;17.33;;;11.20;46.30;;;;;;5052525;28;20394;-73
2022/03/24 01:28:00;;;;;;;23.35;16.73;;;11.20;46.40;;;;;;5052619;28;20017;-74
2022/03/24 01:30:26;;;;;;;30.05;17.60;;;11.10;46.50;;;;;;5053660;28;20037;-74
2022/03/24 01:32:52;;;;;;;22.92;17.90;;;11.10;46.60;;;;;;5053672;28;20131;-73
2022/03/24 01:35:18;;;;;;;27.90;17.08;;;11.00;46.90;;;;;;5052534;28;20485;-72
2022/03/24 01:37:44;;;;;;;27.23;18.42;;;10.90;47.10;;;;;;5053996;28;20017;-74
2022/03/24 01:40:13;;;;;;;26.77;16.70;;;10.80;47.80;;;;;;5053913;28;20550;-75
2022/03/24 01:42:40;;;;;;;29.10;17.73;;;10.80;48.10;;;;;;5054066;28;20021;-74
2022/03/24 01:45:07;;;;;;;27.40;17.02;;;10.80;48.20;;;;;;5053672;28;20148;-74
2022/03/24 01:47:34;;;;;;;22.90;17.05;;;10.80;48.00;;;;;;5052647;28;20465;-73
2022/03/24 01:50:00;;;;;;;33.55;17.80;;;10.70;48.20;;;;;;5053754;28;20426;-74
2022/03/24 01:52:28;;;;;;;28.85;17.27;;;10.70;48.00;;;;;;5053539;28;20025;-74
2022/03/24 01:54:56;;;;;;;31.27;16.13;;;10.80;48.60;;;;;;5053616;28;20159;-73
2022/03/24 01:57:22;;;;;;;23.35;16.08;;;10.80;48.30;;;;;;5053687;28;20021;-75
2022/03/24 01:59:51;;;;;;;25.00;17.27;;;10.80;48.60;;;;;;5053000;28;20102;-75
2022/03/24 02:02:17;;;;;;;22.52;17.08;;;10.80;48.70;;;;;;5054191;28;20023;-73
2022/03/24 02:04:43;;;;;;;30.00;17.10;;;10.70;49.20;;;;;;5053819;28;20100;-73
2022/03/24 02:07:10;;;;;;;24.15;17.15;;;10.70;49.10;;;;;;5051929;28;20025;-72
2022/03/24 02:09:37;;;;;;;25.58;16.73;;;10.70;49.20;;;;;;5052016;28;20048;-74
2022/03/24 02:12:08;;;;;;;23.17;16.75;;;10.70;49.10;;;;;;5053327;28;20028;-73
2022/03/24 02:14:35;;;;;;;24.90;16.55;;;10.60;49.80;;;;;;5053192;28;20029;-74
2022/03/24 02:17:01;;;;;;;22.15;16.35;;;10.60;49.40;;;;;;5053185;28;20023;-73
2022/03/24 02:19:28;;;;;;;26.75;16.90;;;10.60;49.10;;;;;;5085420;28;20037;-75
2022/03/24 02:21:55;;;;;;;24.67;16.85;;;10.50;49.30;;;;;;5052048;28;20056;-74
2022/03/24 02:24:24;;;;;;;30.55;18.92;;;10.50;49.70;;;;;;5052951;28;20032;-75
2022/03/24 02:26:51;;;;;;;25.50;16.60;;;10.50;49.70;;;;;;5053034;28;20031;-74
2022/03/24 02:29:18;;;;;;;26.02;17.13;;;10.40;49.30;;;;;;5052803;28;20411;-72
2022/03/24 02:31:47;;;;;;;22.80;15.80;;;10.40;50.10;;;;;;5052872;28;20025;-74
2022/03/24 02:37:00;;;;;;;23.15;16.33;;;10.30;49.80;;;;;;5053366;28;20040;-74
2022/03/24 02:39:26;;;;;;;24.02;16.55;;;10.20;49.60;;;;;;5051656;28;20063;-73
2022/03/24 02:41:54;;;;;;;22.77;15.32;;;10.10;49.80;;;;;;5053876;28;20021;-72
2022/03/24 02:44:27;;;;;;;26.10;16.77;;;10.10;49.90;;;;;;5036457;28;20064;-73
2022/03/24 02:46:55;;;;;;;25.58;16.33;;;10.10;50.00;;;;;;5053394;28;20047;-73
2022/03/24 02:49:24;;;;;;;23.38;16.17;;;10.10;49.70;;;;;;5052769;28;20060;-77
2022/03/24 02:51:51;;;;;;;21.85;16.30;;;10.10;49.70;;;;;;5051580;28;20013;-74
2022/03/24 02:54:17;;;;;;;23.83;16.45;;;10.00;49.70;;;;;;5052728;28;20056;-75
2022/03/24 02:56:43;;;;;;;25.23;16.38;;;10.00;50.00;;;;;;5052718;28;20096;-75
2022/03/24 02:59:12;;;;;;;27.38;17.13;;;10.00;49.90;;;;;;5051352;28;20052;-74
2022/03/24 03:01:41;;;;;;;22.92;15.07;;;10.00;50.10;;;;;;5052768;28;20371;-74
2022/03/24 03:04:07;;;;;;;25.73;15.68;;;10.00;50.00;;;;;;5052577;28;20021;-73
2022/03/24 03:06:34;;;;;;;20.73;16.35;;;10.00;50.00;;;;;;5052549;28;20025;-73
2022/03/24 03:09:01;;;;;;;24.08;16.05;;;10.00;49.80;;;;;;5052359;28;20044;-78
2022/03/24 03:11:30;;;;;;;25.60;15.55;;;9.90;51.00;;;;;;5087173;28;20055;-76
2022/03/24 03:13:56;;;;;;;22.65;15.43;;;9.90;51.10;;;;;;5055259;28;20028;-74
2022/03/24 03:16:22;;;;;;;25.10;16.30;;;9.90;51.20;;;;;;5056505;28;20029;-76
2022/03/24 03:18:48;;;;;;;20.05;15.45;;;9.90;51.10;;;;;;5056326;28;20021;-73
2022/03/24 03:21:16;;;;;;;19.88;14.10;;;10.00;50.20;;;;;;5056256;28;20024;-75
2022/03/24 03:23:43;;;;;;;24.40;15.15;;;9.90;50.80;;;;;;5056258;28;20430;-75
2022/03/24 03:26:11;;;;;;;23.08;16.20;;;9.90;50.60;;;;;;5056159;28;20075;-74
2022/03/24 03:28:37;;;;;;;20.77;14.82;;;9.90;50.70;;;;;;5055944;28;20420;-74
2022/03/24 03:31:03;;;;;;;20.92;14.68;;;9.90;50.40;;;;;;5056133;28;20537;-74
2022/03/24 03:33:29;;;;;;;19.92;14.95;;;9.90;50.00;;;;;;5056239;28;20036;-73
2022/03/24 03:35:55;;;;;;;21.77;14.77;;;9.90;50.00;;;;;;5056082;28;20697;-75
2022/03/24 03:38:21;;;;;;;21.55;14.80;;;9.90;50.00;;;;;;5055893;28;20501;-74
2022/03/24 03:40:47;;;;;;;23.00;15.15;;;9.90;50.00;;;;;;5055795;28;20041;-73
2022/03/24 03:43:14;;;;;;;21.08;14.38;;;9.90;50.10;;;;;;5055798;28;20049;-73
2022/03/24 03:45:42;;;;;;;22.13;15.02;;;9.80;50.40;;;;;;5055709;28;20478;-75
2022/03/24 03:48:09;;;;;;;21.13;15.77;;;9.80;50.00;;;;;;5055635;28;20026;-76
2022/03/24 03:50:35;;;;;;;22.33;15.13;;;9.70;50.30;;;;;;5055547;28;20647;-75
2022/03/24 03:53:01;;;;;;;23.88;15.48;;;9.70;50.50;;;;;;5054359;28;20032;-73
2022/03/24 03:55:27;;;;;;;20.13;14.32;;;9.70;50.50;;;;;;5055495;28;20025;-73
2022/03/24 03:57:54;;;;;;;19.92;13.75;;;9.70;50.80;;;;;;5055644;28;20371;-74
2022/03/24 04:03:05;;;;;;;21.67;13.73;;;9.70;50.30;;;;;;5055884;28;20358;-73
2022/03/24 04:05:31;;;;;;;19.88;13.50;;;9.80;50.30;;;;;;5054501;28;20079;-77
2022/03/24 04:07:58;;;;;;;19.10;13.55;;;9.80;49.90;;;;;;5056099;28;20489;-73
2022/03/24 04:10:27;;;;;;;19.13;13.52;;;9.80;50.00;;;;;;5087362;28;20045;-72
2022/03/24 04:12:55;;;;;;;18.77;12.95;;;9.80;49.60;;;;;;5055533;28;20044;-74
2022/03/24 04:15:22;;;;;;;18.48;13.05;;;9.80;49.70;;;;;;5055362;28;20036;-72
2022/03/24 04:17:48;;;;;;;19.85;13.73;;;9.80;49.80;;;;;;5055385;28;20580;-73
2022/03/24 04:20:20;;;;;;;18.13;13.63;;;9.80;50.00;;;;;;5055160;28;20071;-74
2022/03/24 04:22:48;;;;;;;17.40;13.85;;;9.80;49.50;;;;;;5054138;28;20075;-73
2022/03/24 04:25:14;;;;;;;19.33;13.52;;;9.70;49.90;;;;;;5053538;28;20482;-73
2022/03/24 04:27:41;;;;;;;18.02;12.88;;;9.80;50.10;;;;;;5055225;28;20371;-73
2022/03/24 04:30:07;;;;;;;19.50;14.05;;;9.70;49.60;;;;;;5053682;28;20099;-73
2022/03/24 04:32:33;;;;;;;25.77;13.80;;;9.70;49.90;;;;;;5054945;28;20132;-73
2022/03/24 04:34:59;;;;;;;18.48;12.75;;;9.70;49.80;;;;;;5054855;28;20470;-72
2022/03/24 04:37:27;;;;;;;21.02;12.88;;;9.70;49.70;;;;;;5053719;28;20032;-73
2022/03/24 04:39:53;;;;;;;17.30;13.13;;;9.70;49.80;;;;;;5087280;28;20045;-74
2022/03/24 04:42:19;;;;;;;20.38;13.60;;;9.70;49.50;;;;;;5054012;28;20517;-72
2022/03/24 04:44:45;;;;;;;22.33;14.68;;;9.60;49.60;;;;;;5054834;28;20028;-73
2022/03/24 04:47:11;;;;;;;20.40;13.13;;;9.60;49.80;;;;;;5054898;28;20393;-73
2022/03/24 04:49:36;;;;;;;20.52;13.27;;;9.60;49.40;;;;;;5054528;28;20036;-73
2022/03/24 04:52:03;;;;;;;20.92;12.45;;;9.60;49.50;;;;;;5055008;28;20104;-72
2022/03/24 04:54:29;;;;;;;16.63;12.32;;;9.60;49.50;;;;;;5054528;28;20029;-73
2022/03/24 04:56:57;;;;;;;17.88;12.50;;;9.60;49.20;;;;;;5054606;28;20107;-74
2022/03/24 04:59:23;;;;;;;19.33;12.93;;;9.60;49.10;;;;;;5054585;28;20033;-74
2022/03/24 05:01:48;;;;;;;21.55;13.20;;;9.60;49.20;;;;;;5054656;28;20552;-75
2022/03/24 05:04:15;;;;;;;19.55;13.32;;;9.60;49.10;;;;;;5054505;28;20025;-72
2022/03/24 05:06:41;;;;;;;19.02;12.73;;;9.70;49.30;;;;;;5053131;28;20037;-73
2022/03/24 05:09:07;;;;;;;19.00;13.27;;;9.70;50.00;;;;;;5054229;28;20025;-76
2022/03/24 05:11:33;;;;;;;23.30;13.77;;;9.70;49.10;;;;;;5054290;28;20037;-76
2022/03/24 05:13:59;;;;;;;20.05;13.63;;;9.60;48.80;;;;;;5054242;28;20062;-75
2022/03/24 05:16:25;;;;;;;37.78;14.07;;;9.60;48.90;;;;;;5054166;28;20463;-75
2022/03/24 05:18:52;;;;;;;19.13;12.80;;;9.50;49.10;;;;;;5054111;28;20101;-74
2022/03/24 05:21:18;;;;;;;21.23;13.40;;;9.50;49.30;;;;;;5054416;28;20029;-73
2022/03/24 05:23:43;;;;;;;20.13;12.73;;;9.50;49.70;;;;;;5054151;28;20028;-74
2022/03/24 05:26:09;;;;;;;19.40;12.88;;;9.50;49.20;;;;;;5054148;28;20114;-76
2022/03/24 05:28:35;;;;;;;19.80;12.63;;;9.40;49.40;;;;;;5052746;28;20402;-72
2022/03/24 05:31:00;;;;;;;18.75;13.05;;;9.50;49.80;;;;;;5054042;28;20386;-77
2022/03/24 05:33:26;;;;;;;23.70;13.77;;;9.50;49.50;;;;;;5053825;28;20112;-74
2022/03/24 05:35:54;;;;;;;21.20;13.25;;;9.50;49.20;;;;;;5052869;28;20032;-77
2022/03/24 05:38:20;;;;;;;18.50;12.85;;;9.60;49.40;;;;;;5054475;28;20143;-75
2022/03/24 05:40:47;;;;;;;18.15;12.02;;;9.60;49.10;;;;;;5054189;28;20053;-75
2022/03/24 05:43:13;;;;;;;20.17;12.52;;;9.70;49.00;;;;;;5054267;28;20029;-74
2022/03/24 05:45:39;;;;;;;17.92;13.65;;;9.60;48.70;;;;;;5054217;28;20025;-74
2022/03/24 05:48:05;;;;;;;20.42;13.00;;;9.60;48.50;;;;;;5069253;28;20124;-73
2022/03/24 05:50:32;;;;;;;26.52;13.30;;;9.50;48.70;;;;;;5053520;28;20025;-76
2022/03/24 05:52:58;;;;;;;22.00;13.82;;;9.60;48.70;;;;;;5053553;28;20028;-76
2022/03/24 05:55:23;;;;;;;19.75;13.02;;;9.50;48.20;;;;;;5053718;28;20017;-77
2022/03/24 05:57:50;;;;;;;19.48;13.27;;;9.50;48.40;;;;;;5053609;28;20074;-73
2022/03/24 06:00:16;;;;;;;19.50;13.30;;;9.50;48.50;;;;;;5053353;28;20104;-74
2022/03/24 06:02:43;;;;;;;18.50;12.60;;;9.60;48.40;;;;;;5053523;28;20052;-75
2022/03/24 06:05:11;;;;;;;18.55;13.50;;;9.60;47.80;;;;;;5053309;28;20021;-75
2022/03/24 06:07:37;;;;;;;23.70;13.07;;;9.70;47.90;;;;;;5053497;28;20021;-73
2022/03/24 06:10:04;;;;;;;18.60;12.77;;;9.80;47.20;;;;;;5053296;28;20032;-75
2022/03/24 06:12:31;;;;;;;19.67;12.95;;;9.90;47.70;;;;;;5053954;28;20021;-76
2022/03/24 06:14:57;;;;;;;27.27;13.30;;;10.00;45.60;;;;;;5054198;28;20044;-75
2022/03/24 06:17:23;;;;;;;20.67;12.73;;;10.20;45.20;;;;;;5053894;28;20017;-74
2022/03/24 06:19:50;;;;;;;21.23;13.77;;;10.20;44.70;;;;;;5055213;28;20021;-73
2022/03/24 06:22:16;;;;;;;20.75;14.43;;;10.30;44.60;;;;;;5055114;28;20111;-76
2022/03/24 06:24:42;;;;;;;22.55;14.82;;;10.40;44.50;;;;;;5055997;28;20104;-74
2022/03/24 06:27:08;;;;;;;21.48;14.23;;;10.40;44.10;;;;;;5054789;28;20053;-78
2022/03/24 06:29:35;;;;;;;23.77;14.30;;;10.50;44.30;;;;;;5053892;28;20032;-81
2022/03/24 06:32:01;;;;;;;19.92;14.55;;;10.60;44.30;;;;;;5054159;28;20033;-76
2022/03/24 06:34:27;;;;;;;23.27;15.05;;;10.70;44.20;;;;;;5055069;28;20553;-74
2022/03/24 06:36:56;;;;;;;22.30;14.63;;;10.90;43.70;;;;;;5053944;28;20521;-76
2022/03/24 06:39:22;;;;;;;24.70;15.10;;;11.00;43.70;;;;;;5052533;28;20052;-74
2022/03/24 06:41:49;;;;;;;24.38;15.20;;;11.20;44.10;;;;;;5052708;28;20104;-76
2022/03/24 06:44:15;;;;;;;19.90;14.35;;;11.20;43.40;;;;;;5052667;28;20025;-72
2022/03/24 06:46:41;;;;;;;24.63;14.80;;;11.30;43.60;;;;;;5051879;28;20048;-76
2022/03/24 06:49:07;;;;;;;25.63;16.25;;;11.50;43.90;;;;;;5052500;28;20067;-75
2022/03/24 06:51:34;;;;;;;24.85;15.00;;;11.50;43.60;;;;;;5052612;28;20401;-75
2022/03/24 06:54:01;;;;;;;26.10;15.10;;;11.40;43.40;;;;;;5052584;28;20058;-75
2022/03/24 06:56:27;;;;;;;23.17;15.20;;;11.50;43.40;;;;;;5071871;28;20033;-75
2022/03/24 06:58:54;;;;;;;24.35;15.32;;;11.50;43.30;;;;;;5052346;28;20028;-74
2022/03/24 07:01:19;;;;;;;25.70;15.82;;;11.60;43.50;;;;;;5052822;28;20025;-76
2022/03/24 07:03:46;;;;;;;20.20;14.77;;;11.70;43.40;;;;;;5052726;28;20509;-77
2022/03/24 07:06:13;;;;;;;26.13;14.95;;;11.90;43.30;;;;;;5053967;28;20040;-77
2022/03/24 07:08:39;;;;;;;25.73;15.70;;;11.90;43.00;;;;;;5053957;28;20108;-74
2022/03/24 07:11:06;;;;;;;24.38;15.20;;;12.00;43.00;;;;;;5052313;28;20035;-76
2022/03/24 07:13:32;;;;;;;23.27;14.70;;;12.00;42.60;;;;;;5053925;28;20100;-72
2022/03/24 07:15:58;;;;;;;23.23;14.93;;;12.10;42.80;;;;;;5051267;28;20029;-73
2022/03/24 07:18:24;;;;;;;21.05;15.60;;;12.10;42.70;;;;;;5052432;28;20047;-73
2022/03/24 07:20:50;;;;;;;21.65;14.98;;;12.20;42.80;;;;;;5067861;28;20037;-74
2022/03/24 07:23:17;;;;;;;23.23;14.57;;;12.30;42.70;;;;;;5052322;28;20085;-73
2022/03/24 07:25:43;;;;;;;24.67;16.27;;;12.50;42.60;;;;;;5050989;28;20041;-74
2022/03/24 07:28:12;;;;;;;23.33;15.60;;;12.70;42.70;;;;;;5052825;28;20123;-74
2022/03/24 07:30:38;;;;;;;26.25;15.40;;;12.80;42.30;;;;;;5053060;28;20489;-74
2022/03/24 07:33:04;;;;;;;21.55;14.82;;;13.00;42.60;;;;;;5054323;28;20077;-74
2022/03/24 07:35:35;;;;;;;22.92;16.08;;;13.10;41.90;;;;;;5054536;28;20056;-77
2022/03/24 07:38:01;;;;;;;22.77;15.13;;;13.20;41.60;;;;;;5052803;28;20027;-77
2022/03/24 07:40:28;;;;;;;24.40;14.90;;;13.20;41.60;;;;;;5052895;28;20072;-76
2022/03/24 07:42:56;;;;;;;21.27;14.32;;;13.30;41.50;;;;;;5054152;28;20028;-77
2022/03/24 07:45:25;;;;;;;22.63;13.52;;;13.40;41.20;;;;;;5053394;28;20043;-74
2022/03/24 07:48:12;;;;;;;24.00;13.57;;;13.50;41.20;;;;;;5052523;28;20478;-76
2022/03/24 07:50:46;;;;;;;27.08;14.25;;;13.70;40.60;;;;;;5051691;28;20064;-75
2022/03/24 07:53:12;;;;;;;20.70;14.23;;;13.70;40.90;;;;;;5051888;28;20036;-75
2022/03/24 07:55:42;;;;;;;22.02;14.20;;;13.80;40.60;;;;;;5052513;28;20025;-76
2022/03/24 07:58:09;;;;;;;28.33;14.48;;;13.90;40.90;;;;;;5055162;28;20135;-77
2022/03/24 08:00:35;;;;;;;28.38;15.05;;;14.00;41.00;;;;;;5057469;28;20020;-76
2022/03/24 08:03:02;;;;;;;22.02;14.35;;;14.10;40.90;;;;;;5056541;28;20021;-76
2022/03/24 08:05:29;;;;;;;22.42;15.15;;;14.20;41.20;;;;;;5088518;28;20033;-78
2022/03/24 08:07:55;;;;;;;27.15;15.80;;;14.30;40.90;;;;;;5056230;28;20025;-76
2022/03/24 08:10:21;;;;;;;25.50;15.45;;;14.30;40.40;;;;;;5056311;28;20368;-77
2022/03/24 08:12:46;;;;;;;25.52;15.32;;;14.30;40.40;;;;;;5055673;28;20509;-76
2022/03/24 08:15:12;;;;;;;24.58;15.23;;;14.30;40.40;;;;;;5055300;28;20068;-76
2022/03/24 08:17:38;;;;;;;24.00;14.70;;;14.20;40.40;;;;;;5055777;28;20459;-75
2022/03/24 08:20:06;;;;;;;21.70;14.80;;;14.20;40.40;;;;;;5055372;28;20580;-74
2022/03/24 08:22:32;;;;;;;27.10;14.10;;;14.20;39.80;;;;;;5055667;28;20092;-75
2022/03/24 08:24:57;;;;;;;29.33;15.10;;;14.20;40.70;;;;;;5056570;28;20398;-74
2022/03/24 08:27:23;;;;;;;22.20;14.55;;;14.10;40.20;;;;;;5055113;28;20110;-76
2022/03/24 08:29:49;;;;;;;22.45;14.82;;;14.10;40.30;;;;;;5053436;28;20060;-76
2022/03/24 08:32:15;;;;;;;25.00;14.52;;;14.10;40.20;;;;;;5054952;28;20017;-74
2022/03/24 08:34:41;;;;;;;20.23;14.88;;;14.10;39.80;;;;;;5054251;28;20075;-75
2022/03/24 08:37:07;;;;;;;24.55;13.63;;;14.10;39.90;;;;;;5054791;28;20022;-76
2022/03/24 08:39:33;;;;;;;20.25;14.18;;;14.10;39.60;;;;;;5054430;28;20045;-75
2022/03/24 08:41:59;;;;;;;29.48;14.45;;;14.20;40.10;;;;;;5054377;28;20061;-76
2022/03/24 08:44:25;;;;;;;21.95;14.00;;;14.30;40.20;;;;;;5054631;28;20040;-75
2022/03/24 08:46:52;;;;;;;20.50;13.57;;;14.30;40.00;;;;;;5054339;28;20045;-75
2022/03/24 08:49:18;;;;;;;24.30;14.02;;;14.30;39.80;;;;;;5054227;28;20025;-76
2022/03/24 08:51:47;;;;;;;21.88;13.55;;;14.40;39.70;;;;;;5054346;28;20051;-75
2022/03/24 08:54:13;;;;;;;25.25;14.63;;;14.40;40.00;;;;;;5054218;28;20021;-74
2022/03/24 08:56:38;;;;;;;27.30;14.70;;;14.50;39.90;;;;;;5054044;28;20025;-75
2022/03/24 08:59:04;;;;;;;23.17;14.88;;;14.50;39.90;;;;;;5052384;28;20029;-76
2022/03/24 09:01:30;;;;;;;25.73;13.85;;;14.60;39.60;;;;;;5053948;28;20201;-75
2022/03/24 09:03:56;;;;;;;20.73;14.32;;;14.70;39.50;;;;;;5054046;28;20021;-75
2022/03/24 09:06:22;;;;;;;20.13;13.70;;;14.80;39.70;;;;;;5054054;28;20033;-76
2022/03/24 09:08:48;;;;;;;19.75;14.80;;;14.90;39.40;;;;;;5053473;28;20035;-74
2022/03/24 09:11:14;;;;;;;25.75;15.30;;;14.90;39.10;;;;;;5053765;28;20037;-76
2022/03/24 09:13:40;;;;;;;23.85;14.88;;;14.90;38.80;;;;;;5053860;28;20098;-76
2022/03/24 09:16:07;;;;;;;22.35;14.63;;;15.00;39.10;;;;;;5054189;28;20039;-77
2022/03/24 09:18:36;;;;;;;23.30;15.30;;;15.10;39.00;;;;;;5053802;28;20100;-74
2022/03/24 09:21:01;;;;;;;24.60;14.88;;;15.10;39.10;;;;;;5054110;28;20033;-75
2022/03/24 09:23:28;;;;;;;21.80;14.38;;;15.20;38.70;;;;;;5053726;28;20328;-76
2022/03/24 09:25:55;;;;;;;18.92;13.80;;;15.30;38.70;;;;;;5053398;28;20378;-74
2022/03/24 09:28:22;;;;;;;24.52;15.43;;;15.30;38.60;;;;;;5052344;28;20021;-74
2022/03/24 09:30:50;;;;;;;24.35;13.75;;;15.50;38.70;;;;;;5053344;28;20033;-74
2022/03/24 09:33:17;;;;;;;23.60;14.15;;;15.60;39.00;;;;;;5053492;28;20020;-72
2022/03/24 09:35:43;;;;;;;21.65;14.48;;;15.70;38.50;;;;;;5053419;28;20029;-72
2022/03/24 09:38:08;;;;;;;23.88;13.35;;;15.80;39.00;;;;;;5051881;28;20473;-78
2022/03/24 09:43:14;;;;;;;25.30;14.95;;;16.00;37.30;;;;;;5052594;28;20053;-70
2022/03/24 09:45:44;;;;;;;26.77;14.73;;;16.10;38.40;;;;;;5053581;28;20454;-71
2022/03/24 09:48:11;;;;;;;23.90;13.18;;;16.20;38.50;;;;;;5054113;28;20029;-71
2022/03/24 09:50:37;;;;;;;24.33;14.13;;;16.30;38.00;;;;;;5053619;28;20040;-69
2022/03/24 09:53:05;;;;;;;23.58;13.13;;;16.40;37.50;;;;;;5052978;28;20021;-68
2022/03/24 09:55:32;;;;;;;24.13;14.30;;;16.50;37.60;;;;;;5053660;28;20394;-68
2022/03/24 09:57:59;;;;;;;22.67;14.77;;;16.60;37.70;;;;;;5053322;28;20052;-67
2022/03/24 10:00:26;;;;;;;23.77;14.45;;;16.70;37.40;;;;;;5052879;28;20025;-67
2022/03/24 10:03:14;;;;;;;24.80;14.93;;;16.80;37.60;;;;;;5053577;28;20021;-70
2022/03/24 10:05:59;;;;;;;21.13;13.20;;;16.90;37.80;;;;;;5053289;28;20390;-69
2022/03/24 10:08:33;;;;;;;17.65;12.63;;;17.00;35.70;;;;;;5052932;28;20041;-67
2022/03/24 10:11:04;;;;;;;22.98;13.30;;;17.10;35.70;;;;;;5053340;28;20029;-69
2022/03/24 10:13:55;;;;;;;22.52;12.27;;;17.20;36.40;;;;;;5053202;28;20390;-68
2022/03/24 10:16:50;;;;;;;23.23;12.43;;;17.30;35.50;;;;;;5051971;28;20083;-68
2022/03/24 10:19:17;;;;;;;22.90;13.38;;;17.40;35.90;;;;;;5039803;28;20474;-70
2022/03/24 10:21:48;;;;;;;18.67;13.77;;;17.50;35.60;;;;;;5052926;28;20032;-72
2022/03/24 10:24:21;;;;;;;20.35;12.55;;;17.50;34.50;;;;;;5051494;28;20040;-70
2022/03/24 10:26:59;;;;;;;17.80;11.43;;;17.60;34.50;;;;;;5053537;28;20481;-68
2022/03/24 10:29:25;;;;;;;18.15;12.10;;;17.60;34.40;;;;;;5052088;28;20542;-70
2022/03/24 10:32:09;;;;;;;19.35;12.38;;;17.70;34.90;;;;;;5053368;28;20025;-74
2022/03/24 10:34:36;;;;;;;;;;;17.80;34.50;;;;;;5052136;28;20431;-71
2022/03/24 10:37:13;;;;;;;17.08;11.75;;;17.90;34.20;;;;;;5053229;28;19905;-68
2022/03/24 10:39:54;;;;;;;18.83;12.00;;;18.10;34.80;;;;;;5051393;28;20047;-69
2022/03/24 10:42:23;;;;;;;33.13;13.88;;;18.20;34.30;;;;;;5052716;28;20087;-71
2022/03/24 10:45:14;;;;;;;21.77;12.00;;;18.30;34.30;;;;;;5053153;28;20044;-68
2022/03/24 10:47:41;;;;;;;32.15;13.02;;;18.40;32.80;;;;;;5047587;28;20036;-71
2022/03/24 10:50:26;;;;;;;30.80;13.13;;;18.50;33.60;;;;;;5052374;28;20074;-71
2022/03/24 10:52:53;;;;;;;24.48;12.32;;;18.60;33.70;;;;;;5052383;28;20028;-74
2022/03/24 10:55:44;;;;;;;1167.18;154.93;;;18.70;33.00;;;;;;5052685;28;20108;-74
2022/03/24 10:58:17;;;;;;;56.08;16.27;;;18.80;33.80;;;;;;5047058;28;20348;-75
2022/03/24 11:00:45;;;;;;;43.72;13.43;;;18.90;32.90;;;;;;5052500;28;20033;-73
2022/03/24 11:03:11;;;;;;;20.02;12.57;;;19.00;31.80;;;;;;5052398;28;20033;-71
2022/03/24 11:05:38;;;;;;;22.33;12.13;;;19.10;31.80;;;;;;5052503;28;20497;-74
2022/03/24 11:08:08;;;;;;;20.58;11.82;;;19.10;31.80;;;;;;5052423;28;20025;-74
2022/03/24 11:10:47;;;;;;;20.25;11.75;;;19.20;32.00;;;;;;5052804;28;20076;-76
2022/03/24 11:13:51;;;;;;;21.05;12.02;;;19.30;31.40;;;;;;5053668;28;20026;-71
2022/03/24 11:16:19;;;;;;;18.33;10.75;;;19.50;32.50;;;;;;5028972;28;20040;-73
2022/03/24 11:18:46;;;;;;;15.65;10.07;;;19.50;30.80;;;;;;5053211;28;20032;-74
2022/03/24 11:21:51;;;;;;;18.75;10.35;;;19.60;30.90;;;;;;5052528;28;20116;-74
2022/03/24 11:24:18;;;;;;;21.73;11.23;;;19.70;32.00;;;;;;5052086;28;20066;-72
2022/03/24 11:26:44;;;;;;;16.17;10.35;;;19.80;30.70;;;;;;5051866;28;20436;-74
2022/03/24 11:29:10;;;;;;;20.08;11.23;;;19.80;31.20;;;;;;5051610;28;20174;-74
2022/03/24 11:31:36;;;;;;;16.23;9.80;;;20.00;31.50;;;;;;5051351;28;20408;-70
2022/03/24 11:34:04;;;;;;;19.00;9.40;;;20.00;31.00;;;;;;5056109;28;20099;-80
2022/03/24 11:36:31;;;;;;;23.48;9.55;;;20.10;30.60;;;;;;5056190;28;20378;-72
2022/03/24 11:39:04;;;;;;;16.80;9.27;;;20.20;30.00;;;;;;5055280;28;20330;-73
2022/03/24 11:41:34;;;;;;;14.70;8.98;;;20.30;30.00;;;;;;5055188;28;20060;-74
2022/03/24 11:44:06;;;;;;;18.63;10.02;;;20.40;30.20;;;;;;5055650;28;20105;-69
2022/03/24 11:46:49;;;;;;;14.27;9.18;;;20.50;31.60;;;;;;5055281;28;20458;-69
2022/03/24 11:49:17;;;;;;;15.45;9.40;;;20.60;31.10;;;;;;5054995;28;20039;-71
2022/03/24 11:51:45;;;;;;;21.00;10.05;;;20.60;29.70;;;;;;5055147;28;20029;-71
2022/03/24 11:54:11;;;;;;;20.85;9.98;;;20.70;29.40;;;;;;5055298;28;20052;-70
2022/03/24 11:56:37;;;;;;;16.35;9.82;;;20.60;29.30;;;;;;5053805;28;20021;-71
2022/03/24 11:59:03;;;;;;;18.45;9.02;;;20.70;29.30;;;;;;5055003;28;20021;-70
2022/03/24 12:01:33;;;;;;;15.07;9.25;;;20.80;29.60;;;;;;5055008;28;20497;-69
2022/03/24 12:04:04;;;;;;;14.75;9.63;;;20.80;29.40;;;;;;5055239;28;20029;-72
2022/03/24 12:06:45;;;;;;;15.65;9.93;;;20.90;29.20;;;;;;5055078;28;20021;-72
2022/03/24 12:09:12;;;;;;;14.88;9.73;;;20.90;29.20;;;;;;5054583;28;20139;-71
2022/03/24 12:11:44;;;;;;;25.38;10.18;;;21.00;29.80;;;;;;5055043;28;20024;-71
2022/03/24 12:14:35;;;;;;;16.20;9.70;;;21.00;30.30;;;;;;5054989;28;20043;-69
2022/03/24 12:17:28;;;;;;;18.05;10.65;;;21.10;30.40;;;;;;5054730;28;20032;-69
2022/03/24 12:19:55;;;;;;;15.82;9.65;;;21.20;31.00;;;;;;5046887;28;20121;-69
2022/03/24 12:22:31;;;;;;;14.75;10.13;;;21.20;31.60;;;;;;5054716;28;20036;-70
2022/03/24 12:24:59;;;;;;;27.17;10.55;;;21.20;31.50;;;;;;5054712;28;20021;-73
2022/03/24 12:27:31;;;;;;;26.15;9.90;;;21.30;32.00;;;;;;5054648;28;20351;-69
2022/03/24 12:30:13;;;;;;;15.98;10.45;;;21.30;32.00;;;;;;5054483;28;20032;-72
2022/03/24 12:32:41;;;;;;;15.35;10.95;;;21.30;31.50;;;;;;5054543;28;20095;-71
2022/03/24 12:35:07;;;;;;;20.90;11.60;;;21.30;32.10;;;;;;5053144;28;20394;-71
2022/03/24 12:37:36;;;;;;;20.92;10.32;;;21.30;31.30;;;;;;5053085;28;20327;-72
2022/03/24 12:40:11;;;;;;;21.08;11.27;;;21.30;31.40;;;;;;5052972;28;20409;-73
2022/03/24 12:42:45;;;;;;;21.60;11.05;;;21.30;31.50;;;;;;5054163;28;20119;-70